Time;durP1;ratioP1;P1;durP2;ratioP2;P2;SDS_P1;SDS_P2;PMS_P1;PMS_P2;Temp;Humidity;BMP_temperature;BMP_pressure;BME280_temperature;BME280_humidity;BME280_pressure;Samples;Min_cycle;Max_cycle;Signal;HPM_P1;HPM_P2
2023/08/17 00:01:49;;;;;;;150.50;144.20;;;;;;;27.60;41.22;101868.09;5043009;28;20030;-73
2023/08/17 00:04:15;;;;;;;140.55;134.68;;;;;;;27.59;41.15;101871.19;5048104;28;20389;-74
2023/08/17 00:06:40;;;;;;;146.82;140.73;;;;;;;27.56;41.26;101872.66;5040153;28;20063;-74
2023/08/17 00:09:06;;;;;;;147.57;141.40;;;;;;;27.54;41.30;101869.44;5044181;28;20035;-73
2023/08/17 00:11:33;;;;;;;144.65;138.55;;;;;;;27.53;41.12;101862.22;5047063;28;20480;-72
2023/08/17 00:13:58;;;;;;;145.85;139.73;;;;;;;27.52;41.30;101863.38;5038223;28;20053;-73
2023/08/17 00:16:24;;;;;;;146.23;140.05;;;;;;;27.48;41.13;101856.84;5045734;28;20089;-73
2023/08/17 00:18:49;;;;;;;148.07;141.98;;;;;;;27.49;41.24;101863.22;5040718;28;20029;-73
2023/08/17 00:21:15;;;;;;;143.23;137.02;;;;;;;27.46;41.32;101852.78;5041071;28;20508;-73
2023/08/17 00:23:40;;;;;;;145.05;138.95;;;;;;;27.44;41.53;101853.09;5044834;28;20349;-74
2023/08/17 00:26:06;;;;;;;143.02;137.05;;;;;;;27.43;41.41;101853.47;5043697;28;20398;-73
2023/08/17 00:28:31;;;;;;;145.57;139.38;;;;;;;27.41;41.46;101857.34;5046575;28;20037;-73
2023/08/17 00:30:57;;;;;;;143.65;137.32;;;;;;;27.39;41.38;101861.59;5048047;28;20240;-73
2023/08/17 00:33:22;;;;;;;142.55;136.30;;;;;;;27.37;41.28;101861.16;5047353;28;20141;-72
2023/08/17 00:35:47;;;;;;;138.40;132.57;;;;;;;27.35;41.39;101864.25;5038439;28;20512;-73
2023/08/17 00:38:13;;;;;;;140.65;134.75;;;;;;;27.33;41.34;101860.97;5043410;28;20052;-72
2023/08/17 00:40:38;;;;;;;151.90;145.50;;;;;;;27.32;41.31;101864.91;5039720;28;20040;-73
2023/08/17 00:43:05;;;;;;;141.93;135.93;;;;;;;27.31;41.53;101868.81;5038203;28;20029;-73
2023/08/17 00:45:31;;;;;;;144.63;138.57;;;;;;;27.29;41.68;101871.13;5038836;28;20132;-72
2023/08/17 00:47:58;;;;;;;141.82;135.93;;;;;;;27.28;41.39;101874.22;5041959;28;20055;-73
2023/08/17 00:50:25;;;;;;;141.38;135.43;;;;;;;27.25;41.56;101867.38;5042166;28;20450;-73
2023/08/17 00:52:55;;;;;;;146.43;140.32;;;;;;;27.24;41.29;101868.53;5044169;28;20083;-73
2023/08/17 00:55:21;;;;;;;144.35;138.25;;;;;;;27.22;41.67;101873.56;5043018;28;20028;-74
2023/08/17 00:57:47;;;;;;;139.73;133.82;;;;;;;27.21;41.27;101874.69;5047643;28;20040;-72
2023/08/17 01:00:13;;;;;;;142.30;136.30;;;;;;;27.18;41.49;101867.84;5039490;28;20374;-72
2023/08/17 01:02:41;;;;;;;143.43;137.32;;;;;;;27.18;41.50;101869.81;5044806;28;20035;-73
2023/08/17 01:05:06;;;;;;;141.05;134.85;;;;;;;27.15;41.43;101870.44;5049463;28;20029;-73
2023/08/17 01:07:32;;;;;;;142.32;136.20;;;;;;;27.13;41.39;101862.44;5043160;28;20039;-72
2023/08/17 01:09:58;;;;;;;140.98;135.05;;;;;;;27.12;41.67;101862.78;5037243;28;20057;-73
2023/08/17 01:12:33;;;;;;;140.75;134.85;;;;;;;27.10;41.43;101862.31;5041103;28;20028;-72
2023/08/17 01:15:20;;;;;;;142.95;136.80;;;;;;;27.06;41.33;101859.34;5044372;28;20082;-72
2023/08/17 01:17:55;;;;;;;140.30;134.50;;;;;;;27.04;41.34;101861.66;5041620;28;20067;-73
2023/08/17 01:20:23;;;;;;;147.80;141.70;;;;;;;27.04;41.32;101863.59;5044608;28;20025;-72
2023/08/17 01:22:50;;;;;;;141.55;135.65;;;;;;;27.01;41.69;101867.84;5042575;28;20037;-73
2023/08/17 01:25:15;;;;;;;146.38;140.27;;;;;;;27.01;41.66;101864.25;5044333;28;20031;-72
2023/08/17 01:27:44;;;;;;;142.38;136.38;;;;;;;26.98;41.41;101861.00;5049019;28;20033;-72
2023/08/17 01:30:12;;;;;;;138.23;132.23;;;;;;;26.98;41.31;101860.19;5043464;28;20029;-74
2023/08/17 01:32:53;;;;;;;141.13;135.18;;;;;;;26.95;41.57;101856.09;5044501;28;20091;-73
2023/08/17 01:35:32;;;;;;;141.48;135.48;;;;;;;26.93;41.52;101860.34;5042868;28;20038;-75
2023/08/17 01:38:03;;;;;;;143.50;137.40;;;;;;;26.93;41.51;101857.56;5041548;28;20116;-73
2023/08/17 01:40:32;;;;;;;136.55;130.75;;;;;;;26.91;41.74;101851.53;5034997;28;20033;-73
2023/08/17 01:42:58;;;;;;;136.93;130.82;;;;;;;26.90;41.53;101850.72;5042016;28;20499;-73
2023/08/17 01:45:25;;;;;;;139.23;133.32;;;;;;;26.88;41.35;101854.97;5044682;28;20025;-72
2023/08/17 01:47:50;;;;;;;137.63;131.77;;;;;;;26.88;41.58;101857.75;5043209;28;20038;-73
2023/08/17 01:50:16;;;;;;;140.57;134.57;;;;;;;26.87;41.49;101853.34;5040714;28;20038;-73
2023/08/17 01:52:41;;;;;;;138.25;132.35;;;;;;;26.85;41.46;101859.22;5042192;28;20036;-73
2023/08/17 01:55:08;;;;;;;142.30;136.35;;;;;;;26.83;41.45;101844.84;5040920;28;20033;-73
2023/08/17 01:57:33;;;;;;;143.20;136.30;;;;;;;26.82;41.82;101847.97;5037977;28;20042;-73
2023/08/17 02:00:00;;;;;;;140.45;134.60;;;;;;;26.80;41.62;101842.75;5043402;28;20026;-72
2023/08/17 02:02:26;;;;;;;140.05;133.95;;;;;;;26.79;41.50;101846.66;5044791;28;20037;-73
2023/08/17 02:04:51;;;;;;;141.88;135.95;;;;;;;26.77;41.22;101848.94;5043165;28;20071;-72
2023/08/17 02:07:17;;;;;;;139.85;134.05;;;;;;;26.75;41.54;101849.25;5042304;28;20472;-73
2023/08/17 02:09:42;;;;;;;138.00;132.20;;;;;;;26.73;41.54;101851.53;5043340;28;20465;-73
2023/08/17 02:12:08;;;;;;;136.18;130.35;;;;;;;26.73;41.82;101859.03;5043019;28;20044;-72
2023/08/17 02:14:33;;;;;;;138.70;132.82;;;;;;;26.71;41.38;101856.63;5048090;28;20037;-74
2023/08/17 02:16:59;;;;;;;137.55;131.75;;;;;;;26.69;41.94;101861.66;5043063;28;20068;-74
2023/08/17 02:19:24;;;;;;;136.48;130.77;;;;;;;26.69;41.51;101860.84;5051176;28;20123;-73
2023/08/17 02:21:50;;;;;;;138.45;132.57;;;;;;;26.67;41.64;101865.91;5049384;28;20473;-73
2023/08/17 02:24:15;;;;;;;138.35;132.43;;;;;;;26.65;41.52;101857.09;5040977;28;20037;-74
2023/08/17 02:26:41;;;;;;;143.00;137.00;;;;;;;26.63;41.83;101857.41;5043148;28;20443;-72
2023/08/17 02:29:06;;;;;;;133.98;128.32;;;;;;;26.62;41.45;101852.22;5048832;28;20056;-72
2023/08/17 02:31:31;;;;;;;134.80;129.15;;;;;;;26.60;41.80;101852.50;5043828;28;20036;-73
2023/08/17 02:34:00;;;;;;;135.25;129.55;;;;;;;26.59;41.68;101853.66;5043396;28;20037;-74
2023/08/17 02:36:27;;;;;;;137.77;132.02;;;;;;;26.59;41.83;101850.09;5044716;28;20037;-72
2023/08/17 02:38:53;;;;;;;144.15;138.00;;;;;;;26.57;41.69;101853.19;5041826;28;20056;-74
2023/08/17 02:41:18;;;;;;;138.20;132.40;;;;;;;26.56;41.76;101851.56;5046023;28;20374;-73
2023/08/17 02:43:43;;;;;;;139.27;133.40;;;;;;;26.54;41.67;101849.09;5042189;28;20036;-73
2023/08/17 02:46:09;;;;;;;136.45;130.75;;;;;;;26.52;41.65;101840.28;5041948;28;20102;-73
2023/08/17 02:48:35;;;;;;;132.57;127.03;;;;;;;26.52;41.69;101842.22;5046151;28;20390;-75
2023/08/17 02:51:00;;;;;;;132.70;127.10;;;;;;;26.51;41.69;101854.41;5045917;28;20044;-73
2023/08/17 02:53:26;;;;;;;133.43;127.68;;;;;;;26.49;41.66;101849.22;5040809;28;20380;-73
2023/08/17 02:55:51;;;;;;;138.23;132.40;;;;;;;26.48;41.54;101853.13;5043070;28;20531;-73
2023/08/17 02:58:16;;;;;;;134.18;128.52;;;;;;;26.46;41.62;101844.34;5046539;28;20056;-74
2023/08/17 03:00:42;;;;;;;134.30;128.55;;;;;;;26.46;41.99;101846.28;5049743;28;20057;-73
2023/08/17 03:03:07;;;;;;;135.38;129.40;;;;;;;26.44;41.68;101848.56;5044643;28;20048;-73
2023/08/17 03:05:33;;;;;;;135.30;129.30;;;;;;;26.42;41.44;101839.75;5043968;28;20037;-74
2023/08/17 03:07:59;;;;;;;135.18;129.40;;;;;;;26.40;41.82;101833.72;5047908;28;20037;-72
2023/08/17 03:10:25;;;;;;;138.65;132.50;;;;;;;26.38;42.05;101836.81;5043206;28;20077;-72
2023/08/17 03:12:50;;;;;;;132.93;127.32;;;;;;;26.38;41.72;101836.00;5044987;28;20041;-74
2023/08/17 03:15:16;;;;;;;131.73;125.82;;;;;;;26.36;41.66;101839.13;5043488;28;20032;-74
2023/08/17 03:17:41;;;;;;;132.05;126.43;;;;;;;26.36;41.72;101835.50;5052291;28;20048;-74
2023/08/17 03:20:07;;;;;;;131.48;125.97;;;;;;;26.33;41.55;101832.25;5041589;28;20036;-73
2023/08/17 03:22:34;;;;;;;133.77;128.18;;;;;;;26.32;41.74;101832.56;5045141;28;20033;-73
2023/08/17 03:24:59;;;;;;;133.10;127.50;;;;;;;26.31;41.99;101840.06;5043493;28;20041;-72
2023/08/17 03:27:25;;;;;;;128.30;122.85;;;;;;;26.28;41.77;101831.59;5046713;28;20472;-74
2023/08/17 03:29:51;;;;;;;138.20;132.30;;;;;;;26.28;41.77;101831.59;5042960;28;20029;-73
2023/08/17 03:32:17;;;;;;;135.52;129.63;;;;;;;26.26;41.68;101831.94;5043177;28;20550;-72
2023/08/17 03:34:42;;;;;;;131.90;126.38;;;;;;;26.25;41.68;101829.47;5041915;28;20139;-74
2023/08/17 03:37:08;;;;;;;129.23;123.82;;;;;;;26.23;41.72;101835.34;5044313;28;20045;-74
2023/08/17 03:39:33;;;;;;;133.45;127.75;;;;;;;26.22;41.71;101833.69;5046940;28;20708;-72
2023/08/17 03:41:58;;;;;;;133.65;127.95;;;;;;;26.21;41.61;101834.03;5037896;28;20043;-73
2023/08/17 03:44:24;;;;;;;127.75;122.22;;;;;;;26.20;41.53;101837.94;5040197;28;20029;-74
2023/08/17 03:46:49;;;;;;;133.90;128.10;;;;;;;26.18;41.78;101826.34;5046053;28;20037;-72
2023/08/17 03:49:14;;;;;;;132.13;126.45;;;;;;;26.17;41.82;101833.84;5044104;28;20087;-73
2023/08/17 03:51:40;;;;;;;128.13;122.72;;;;;;;26.15;41.80;101838.88;5040618;28;20398;-72
2023/08/17 03:54:05;;;;;;;129.85;124.38;;;;;;;26.13;41.81;101832.84;5042323;28;20041;-73
2023/08/17 03:56:31;;;;;;;133.38;127.57;;;;;;;26.12;42.01;101842.31;5045747;28;20037;-72
2023/08/17 03:58:56;;;;;;;129.68;124.18;;;;;;;26.11;41.66;101832.38;5048594;28;20055;-73
2023/08/17 04:01:22;;;;;;;132.18;126.57;;;;;;;26.09;41.64;101837.41;5048140;28;20033;-72
2023/08/17 04:03:47;;;;;;;130.90;125.32;;;;;;;26.07;41.52;101845.22;5047602;28;20037;-73
2023/08/17 04:06:13;;;;;;;133.43;127.88;;;;;;;26.06;42.06;101835.31;5041555;28;20033;-73
2023/08/17 04:08:38;;;;;;;130.57;124.88;;;;;;;26.05;41.49;101842.75;5041475;28;20119;-72
2023/08/17 04:11:05;;;;;;;131.45;125.95;;;;;;;26.05;42.00;101853.03;5046915;28;20840;-72
2023/08/17 04:13:31;;;;;;;130.55;125.00;;;;;;;26.03;41.66;101852.53;5043204;28;20112;-72
2023/08/17 04:15:56;;;;;;;128.65;123.15;;;;;;;26.02;41.77;101850.91;5046593;28;20081;-73
2023/08/17 04:18:22;;;;;;;129.88;124.40;;;;;;;26.00;41.69;101854.00;5044497;28;20132;-73
2023/08/17 04:20:47;;;;;;;129.77;124.30;;;;;;;25.98;42.05;101853.50;5041902;28;20044;-73
2023/08/17 04:23:12;;;;;;;127.75;122.38;;;;;;;25.96;41.96;101855.78;5043273;28;20441;-72
2023/08/17 04:25:38;;;;;;;128.35;122.88;;;;;;;25.94;41.73;101849.75;5040570;28;20580;-72
2023/08/17 04:28:04;;;;;;;135.15;129.30;;;;;;;25.93;41.86;101845.34;5045033;28;20037;-73
2023/08/17 04:30:29;;;;;;;126.15;120.65;;;;;;;25.94;41.80;101854.47;5045529;28;20037;-73
2023/08/17 04:32:55;;;;;;;131.32;125.78;;;;;;;25.90;42.11;101852.34;5038751;28;20121;-72
2023/08/17 04:35:20;;;;;;;132.13;126.63;;;;;;;25.89;41.50;101859.00;5038986;28;20049;-73
2023/08/17 04:37:47;;;;;;;134.10;128.50;;;;;;;25.89;41.81;101850.69;5041341;28;20456;-72
2023/08/17 04:40:12;;;;;;;128.57;123.18;;;;;;;25.86;41.99;101851.34;5034176;28;20048;-74
2023/08/17 04:42:38;;;;;;;128.98;123.50;;;;;;;25.86;42.11;101851.34;5043978;28;20037;-73
2023/08/17 04:45:03;;;;;;;129.57;123.97;;;;;;;25.85;41.79;101851.66;5048507;28;20099;-72
2023/08/17 04:47:29;;;;;;;126.57;121.18;;;;;;;25.84;41.91;101852.78;5042634;28;20371;-73
2023/08/17 04:49:54;;;;;;;124.75;119.43;;;;;;;25.83;41.71;101851.13;5040939;28;20033;-74
2023/08/17 04:52:20;;;;;;;132.18;126.47;;;;;;;25.81;41.85;101845.94;5029373;28;20091;-73
2023/08/17 04:54:45;;;;;;;124.78;119.38;;;;;;;25.80;41.80;101846.22;5043177;28;20111;-75
2023/08/17 04:57:10;;;;;;;126.32;120.95;;;;;;;25.78;41.79;101849.34;5040774;28;20044;-76
2023/08/17 04:59:36;;;;;;;127.47;122.05;;;;;;;25.78;41.85;101854.03;5049808;28;20037;-73
2023/08/17 05:02:02;;;;;;;130.40;124.80;;;;;;;25.77;41.89;101852.41;5039958;28;20037;-72
2023/08/17 05:04:27;;;;;;;129.57;124.13;;;;;;;25.75;41.92;101860.22;5041640;28;20033;-74
2023/08/17 05:06:52;;;;;;;132.32;126.53;;;;;;;25.74;41.87;101850.28;5037317;28;20036;-73
2023/08/17 05:09:18;;;;;;;127.18;121.80;;;;;;;25.73;42.06;101848.63;5039768;28;20036;-73
2023/08/17 05:11:43;;;;;;;130.07;124.68;;;;;;;25.72;41.76;101841.50;5048081;28;20516;-74
2023/08/17 05:14:09;;;;;;;127.57;122.18;;;;;;;25.71;41.97;101848.16;5049125;28;20040;-72
2023/08/17 05:16:34;;;;;;;127.22;121.85;;;;;;;25.69;41.84;101845.72;5048224;28;20178;-73
2023/08/17 05:19:00;;;;;;;129.95;123.97;;;;;;;25.68;41.75;101839.38;5044316;28;20028;-73
2023/08/17 05:21:26;;;;;;;127.22;121.82;;;;;;;25.67;41.79;101843.25;5044366;28;20484;-72
2023/08/17 05:23:51;;;;;;;125.07;119.80;;;;;;;25.66;41.98;101846.34;5041523;28;20025;-72
2023/08/17 05:26:17;;;;;;;126.65;121.28;;;;;;;25.64;42.13;101843.88;5041379;28;20111;-73
2023/08/17 05:28:43;;;;;;;129.15;123.60;;;;;;;25.63;41.68;101841.47;5032308;28;20075;-72
2023/08/17 05:31:09;;;;;;;125.75;120.38;;;;;;;25.62;41.87;101840.63;5031918;28;20498;-71
2023/08/17 05:33:34;;;;;;;127.35;121.97;;;;;;;25.61;42.02;101843.72;5040870;28;20127;-74
2023/08/17 05:36:00;;;;;;;124.90;119.40;;;;;;;25.59;41.99;101841.25;5038111;28;20099;-72
2023/08/17 05:38:25;;;;;;;124.40;119.07;;;;;;;25.58;41.88;101844.38;5039114;28;20041;-72
2023/08/17 05:40:57;;;;;;;127.82;122.32;;;;;;;25.56;41.59;101843.84;5036152;28;20069;-72
2023/08/17 05:43:24;;;;;;;128.65;123.20;;;;;;;25.55;41.80;101848.59;5046429;28;20052;-72
2023/08/17 05:45:49;;;;;;;124.57;119.28;;;;;;;25.55;41.83;101850.50;5041116;28;20046;-71
2023/08/17 05:48:15;;;;;;;126.00;120.70;;;;;;;25.53;42.16;101859.16;5032753;28;20496;-72
2023/08/17 05:50:43;;;;;;;122.43;117.22;;;;;;;25.52;41.88;101868.56;5031756;28;20049;-71
2023/08/17 05:53:09;;;;;;;124.22;118.85;;;;;;;25.51;42.19;101864.19;5047009;28;20037;-72
2023/08/17 05:55:34;;;;;;;126.38;121.07;;;;;;;25.49;41.80;101866.44;5039445;28;20496;-72
2023/08/17 05:58:00;;;;;;;128.57;123.07;;;;;;;25.47;41.69;101857.63;5044397;28;20030;-72
2023/08/17 06:00:25;;;;;;;124.82;119.53;;;;;;;25.46;42.37;101861.53;5042225;28;20037;-73
2023/08/17 06:02:51;;;;;;;121.05;115.65;;;;;;;25.43;41.92;101856.66;5039540;28;20033;-73
2023/08/17 06:05:17;;;;;;;124.07;118.65;;;;;;;25.41;42.16;101864.44;5050768;28;20037;-71
2023/08/17 06:07:43;;;;;;;123.32;117.93;;;;;;;25.38;41.94;101865.09;5043697;28;20128;-72
2023/08/17 06:10:09;;;;;;;120.10;114.57;;;;;;;25.36;42.30;101867.34;5037959;28;20129;-73
2023/08/17 06:12:35;;;;;;;116.57;111.43;;;;;;;25.34;42.12;101870.41;5038337;28;20477;-72
2023/08/17 06:15:05;;;;;;;120.68;115.28;;;;;;;25.33;41.90;101867.97;5048845;28;20040;-71
2023/08/17 06:17:30;;;;;;;118.72;113.53;;;;;;;25.32;42.06;101875.44;5046504;28;20127;-72
2023/08/17 06:19:56;;;;;;;118.80;113.60;;;;;;;25.30;42.41;101871.34;5037731;28;20117;-71
2023/08/17 06:22:21;;;;;;;122.90;117.70;;;;;;;25.29;41.99;101870.53;5033965;28;20083;-72
2023/08/17 06:24:47;;;;;;;116.75;111.60;;;;;;;25.28;41.97;101870.88;5036766;28;20538;-72
2023/08/17 06:27:14;;;;;;;122.30;116.90;;;;;;;25.28;42.35;101870.88;5043656;28;20037;-72
2023/08/17 06:29:39;;;;;;;121.45;116.25;;;;;;;25.27;42.03;101870.03;5034112;28;20034;-72
2023/08/17 06:32:05;;;;;;;122.28;116.68;;;;;;;25.25;42.48;101864.84;5032835;28;20402;-73
2023/08/17 06:34:31;;;;;;;120.05;114.45;;;;;;;25.26;41.97;101873.94;5032848;28;20163;-71
2023/08/17 06:36:58;;;;;;;116.25;111.32;;;;;;;25.26;42.05;101876.72;5040743;28;20034;-72
2023/08/17 06:39:23;;;;;;;118.47;113.47;;;;;;;25.25;42.41;101875.91;5045992;28;20037;-72
2023/08/17 06:41:49;;;;;;;117.97;112.90;;;;;;;25.23;42.14;101872.63;5031588;28;20044;-73
2023/08/17 06:44:14;;;;;;;120.70;115.18;;;;;;;25.24;42.16;101879.78;5038231;28;20029;-72
2023/08/17 06:46:40;;;;;;;117.13;112.15;;;;;;;25.24;42.21;101876.19;5046197;28;20040;-72
2023/08/17 06:49:05;;;;;;;125.50;120.00;;;;;;;25.23;42.38;101880.13;5042291;28;20041;-73
2023/08/17 06:51:30;;;;;;;115.28;110.22;;;;;;;25.22;41.92;101884.81;5046788;28;20388;-70
2023/08/17 06:53:56;;;;;;;120.30;115.20;;;;;;;25.22;41.84;101897.81;5036170;28;20037;-71
2023/08/17 06:56:22;;;;;;;117.70;112.70;;;;;;;25.21;42.32;101876.84;5042902;28;20064;-71
2023/08/17 06:58:48;;;;;;;117.28;112.15;;;;;;;25.21;42.03;101882.38;5039403;28;20045;-71
2023/08/17 07:01:14;;;;;;;118.97;113.75;;;;;;;25.20;42.29;101880.72;5040130;28;20037;-71
2023/08/17 07:03:40;;;;;;;116.95;111.95;;;;;;;25.20;42.26;101881.56;5037915;28;20432;-72
2023/08/17 07:06:05;;;;;;;116.97;111.80;;;;;;;25.19;41.98;101882.66;5041934;28;20044;-72
2023/08/17 07:08:32;;;;;;;120.43;115.22;;;;;;;25.18;42.07;101883.81;5037481;28;20046;-72
2023/08/17 07:10:58;;;;;;;117.45;112.35;;;;;;;25.18;42.17;101883.81;5040521;28;20052;-72
2023/08/17 07:13:23;;;;;;;118.68;113.38;;;;;;;25.18;42.14;101883.00;5043949;28;20037;-73
2023/08/17 07:15:49;;;;;;;121.88;116.68;;;;;;;25.18;42.22;101880.25;5046953;28;20443;-73
2023/08/17 07:18:14;;;;;;;119.10;113.80;;;;;;;25.18;42.15;101874.72;5048706;28;20462;-73
2023/08/17 07:20:40;;;;;;;117.25;112.25;;;;;;;25.19;42.40;101873.56;5049628;28;20041;-73
2023/08/17 07:23:05;;;;;;;121.90;116.57;;;;;;;25.19;42.31;101868.03;5045978;28;20040;-72
2023/08/17 07:25:31;;;;;;;119.95;114.70;;;;;;;25.20;42.26;101867.72;5048596;28;20087;-73
2023/08/17 07:27:56;;;;;;;117.18;111.97;;;;;;;25.21;42.34;101865.78;5048355;28;20480;-72
2023/08/17 07:30:22;;;;;;;121.35;115.97;;;;;;;25.22;42.23;101865.47;5039409;28;20545;-73
2023/08/17 07:32:47;;;;;;;120.25;115.05;;;;;;;25.23;42.11;101872.63;5049178;28;20067;-73
2023/08/17 07:35:13;;;;;;;119.60;114.50;;;;;;;25.24;42.33;101870.66;5031280;28;20500;-72
2023/08/17 07:37:38;;;;;;;119.88;114.68;;;;;;;25.24;42.19;101876.19;5048078;28;20120;-71
2023/08/17 07:40:04;;;;;;;117.45;112.45;;;;;;;25.25;42.31;101877.84;5048445;28;20041;-72
2023/08/17 07:42:30;;;;;;;118.75;113.65;;;;;;;25.26;42.33;101885.00;5045453;28;20064;-74
2023/08/17 07:44:55;;;;;;;120.03;114.90;;;;;;;25.25;42.65;101889.72;5041501;28;20045;-72
2023/08/17 07:47:21;;;;;;;119.75;114.38;;;;;;;25.26;42.58;101888.59;5043949;28;20036;-72
2023/08/17 07:49:46;;;;;;;118.70;113.55;;;;;;;25.26;42.34;101882.25;5050310;28;20128;-72
2023/08/17 07:52:12;;;;;;;119.75;114.07;;;;;;;25.27;42.71;101892.16;5049211;28;20051;-73
2023/08/17 07:54:37;;;;;;;118.65;113.35;;;;;;;25.29;42.20;101900.16;5045569;28;20484;-71
2023/08/17 07:57:03;;;;;;;119.57;114.30;;;;;;;25.29;42.41;101891.84;5030500;28;20461;-73
2023/08/17 07:59:29;;;;;;;121.15;115.90;;;;;;;25.29;42.21;101889.09;5050078;28;20029;-71
2023/08/17 08:01:54;;;;;;;120.05;114.75;;;;;;;25.30;42.17;101879.66;5044320;28;20033;-72
2023/08/17 08:04:19;;;;;;;119.53;114.22;;;;;;;25.30;42.64;101886.03;5031641;28;20128;-72
2023/08/17 08:06:46;;;;;;;116.32;111.22;;;;;;;25.31;42.46;101884.06;5046370;28;20112;-72
2023/08/17 08:09:12;;;;;;;119.55;114.25;;;;;;;25.32;42.57;101889.25;5037324;28;20037;-73
2023/08/17 08:11:37;;;;;;;116.10;111.03;;;;;;;25.32;42.64;101880.97;5032203;28;20055;-71
2023/08/17 08:14:03;;;;;;;122.70;117.13;;;;;;;25.32;42.45;101878.19;5042997;28;20042;-71
2023/08/17 08:16:30;;;;;;;123.35;117.90;;;;;;;25.33;42.58;101874.31;5045908;28;20045;-70
2023/08/17 08:18:56;;;;;;;117.60;112.60;;;;;;;25.35;42.27;101880.34;5050715;28;20033;-71
2023/08/17 08:21:21;;;;;;;119.57;114.03;;;;;;;25.36;42.49;101883.94;5049438;28;20103;-71
2023/08/17 08:23:47;;;;;;;119.90;114.18;;;;;;;25.37;42.91;101894.66;5044054;28;20086;-71
2023/08/17 08:26:12;;;;;;;116.57;111.53;;;;;;;25.37;42.48;101891.09;5045253;28;20041;-71
2023/08/17 08:28:37;;;;;;;117.15;111.75;;;;;;;25.37;42.80;101880.84;5047482;28;20370;-71
2023/08/17 08:31:03;;;;;;;120.00;114.55;;;;;;;25.38;42.69;101888.03;5051800;28;20041;-71
2023/08/17 08:33:29;;;;;;;118.25;113.15;;;;;;;25.40;42.68;101876.63;5039974;28;20040;-71
2023/08/17 08:35:55;;;;;;;118.18;113.13;;;;;;;25.41;42.55;101881.03;5047601;28;20033;-71
2023/08/17 08:38:20;;;;;;;118.78;113.63;;;;;;;25.41;42.66;101869.97;5039496;28;20389;-70
2023/08/17 08:40:47;;;;;;;119.35;114.25;;;;;;;25.43;42.59;101870.47;5031449;28;20079;-70
2023/08/17 08:43:12;;;;;;;118.80;113.63;;;;;;;25.43;42.96;101862.19;5043962;28;20127;-70
2023/08/17 08:45:41;;;;;;;120.50;115.00;;;;;;;25.44;42.75;101866.56;5037430;28;20047;-71
2023/08/17 08:48:08;;;;;;;118.47;113.45;;;;;;;25.45;42.71;101874.56;5035650;28;20029;-71
2023/08/17 08:50:35;;;;;;;122.53;116.72;;;;;;;25.46;42.82;101873.41;5038089;28;20033;-71
2023/08/17 08:53:04;;;;;;;119.78;114.45;;;;;;;25.47;42.58;101874.22;5031142;28;20064;-72
2023/08/17 08:55:33;;;;;;;;;;;;;;;25.41;42.76;101870.78;5036620;28;20507;-72
2023/08/17 08:57:59;;;;;;;119.30;113.70;;;;;;;25.47;42.98;101868.69;5047304;28;19935;-72
2023/08/17 09:00:26;;;;;;;121.63;115.85;;;;;;;25.47;42.88;101875.03;5038289;28;20033;-72
2023/08/17 09:02:53;;;;;;;120.78;115.55;;;;;;;25.49;42.92;101866.44;5032077;28;20342;-72
2023/08/17 09:05:18;;;;;;;120.55;115.15;;;;;;;25.51;43.23;101860.59;5035998;28;20052;-72
2023/08/17 09:07:48;;;;;;;118.43;113.38;;;;;;;25.52;42.66;101864.97;5030826;28;20402;-72
2023/08/17 09:10:16;;;;;;;;;;;;;;;25.46;43.01;101865.13;5043984;28;20045;-72
2023/08/17 09:12:41;;;;;;;116.43;111.38;;;;;;;25.52;42.91;101867.75;5034715;28;19931;-72
2023/08/17 09:15:07;;;;;;;115.05;110.05;;;;;;;25.52;43.05;101863.03;5047734;28;20036;-71
2023/08/17 09:17:36;;;;;;;120.22;114.60;;;;;;;25.53;42.83;101861.06;5040739;28;20036;-71
2023/08/17 09:20:02;;;;;;;119.35;114.05;;;;;;;25.54;43.33;101852.47;5045892;28;20029;-71
2023/08/17 09:22:40;;;;;;;122.97;117.57;;;;;;;25.56;43.14;101854.94;5046210;28;21345;-71
2023/08/17 09:25:07;;;;;;;121.63;116.22;;;;;;;25.57;43.15;101851.00;5037359;28;20029;-71
2023/08/17 09:27:33;;;;;;;120.45;115.25;;;;;;;25.57;43.12;101851.00;5039091;28;20047;-71
2023/08/17 09:30:07;;;;;;;127.53;121.63;;;;;;;25.60;43.16;101855.91;5039857;28;20041;-71
2023/08/17 09:32:33;;;;;;;124.45;118.95;;;;;;;25.61;43.16;101854.78;5042221;28;20119;-76
2023/08/17 09:35:06;;;;;;;122.63;117.13;;;;;;;25.60;43.29;101853.97;5048813;28;20033;-71
2023/08/17 09:37:34;;;;;;;121.78;116.38;;;;;;;25.62;43.04;101848.09;5038245;28;20055;-71
2023/08/17 09:40:00;;;;;;;121.90;116.70;;;;;;;25.63;43.21;101849.75;5043801;28;20045;-71
2023/08/17 09:42:27;;;;;;;121.60;116.22;;;;;;;25.63;43.42;101847.81;5034284;28;20028;-71
2023/08/17 09:44:53;;;;;;;123.32;117.90;;;;;;;25.64;43.41;101852.19;5044629;28;20033;-71
2023/08/17 09:47:19;;;;;;;124.05;118.45;;;;;;;25.66;43.22;101854.66;5034778;28;20099;-71
2023/08/17 09:49:54;;;;;;;122.32;116.65;;;;;;;25.66;43.33;101849.13;5038275;28;20121;-72
2023/08/17 09:52:21;;;;;;;124.97;119.22;;;;;;;25.68;43.51;101850.44;5047550;28;20135;-70
2023/08/17 09:54:47;;;;;;;122.03;116.72;;;;;;;25.68;43.17;101844.91;5045660;28;20478;-71
2023/08/17 09:57:13;;;;;;;124.10;118.60;;;;;;;25.69;43.08;101843.75;5049849;28;20551;-71
2023/08/17 09:59:39;;;;;;;127.55;121.95;;;;;;;25.71;43.51;101840.69;5041365;28;20832;-72
2023/08/17 10:02:21;;;;;;;125.97;120.57;;;;;;;25.72;43.41;101841.50;5034021;28;20036;-71
2023/08/17 10:04:52;;;;;;;122.97;117.57;;;;;;;25.72;43.29;101842.28;5034103;28;20405;-71
2023/08/17 10:07:24;;;;;;;122.65;117.00;;;;;;;25.74;43.50;101833.69;5032255;28;20513;-72
2023/08/17 10:10:02;;;;;;;120.40;114.93;;;;;;;25.75;43.46;101840.84;5034719;28;20478;-71
2023/08/17 10:12:32;;;;;;;121.70;116.10;;;;;;;25.75;43.34;101838.88;5040916;28;20397;-72
2023/08/17 10:15:03;;;;;;;124.00;118.28;;;;;;;25.77;43.23;101835.81;5040796;28;20028;-71
2023/08/17 10:17:53;;;;;;;122.65;116.80;;;;;;;25.78;43.47;101841.03;5046594;28;20034;-73
2023/08/17 10:20:19;;;;;;;125.00;119.60;;;;;;;25.78;43.10;101841.03;5040412;28;20045;-72
2023/08/17 10:23:14;;;;;;;122.47;117.10;;;;;;;25.78;43.20;101841.03;5048233;28;20102;-72
2023/08/17 10:25:42;;;;;;;129.32;122.80;;;;;;;25.80;43.46;101832.41;5031456;28;20041;-72
2023/08/17 10:28:09;;;;;;;125.57;119.68;;;;;;;25.80;43.44;101827.66;5044874;28;20412;-72
2023/08/17 10:30:37;;;;;;;124.35;118.88;;;;;;;25.81;43.39;101823.78;5047824;28;20120;-70
2023/08/17 10:33:07;;;;;;;125.13;119.60;;;;;;;25.82;43.63;101830.94;5048054;28;20081;-71
2023/08/17 10:35:34;;;;;;;125.75;120.15;;;;;;;25.83;43.56;101827.06;5036471;28;20033;-72
2023/08/17 10:38:02;;;;;;;126.20;120.57;;;;;;;25.84;43.51;101834.22;5053234;28;20060;-71
2023/08/17 10:40:40;;;;;;;129.57;123.70;;;;;;;25.86;43.50;101831.16;5047816;28;20080;-71
2023/08/17 10:43:06;;;;;;;124.25;118.72;;;;;;;25.86;43.30;101829.22;5052078;28;20040;-72
2023/08/17 10:45:38;;;;;;;128.88;123.35;;;;;;;25.88;43.22;101823.34;5046349;28;20052;-72
2023/08/17 10:48:07;;;;;;;124.40;118.40;;;;;;;25.88;43.53;101824.16;5035006;28;20456;-71
2023/08/17 10:50:32;;;;;;;;;;;;;;;25.85;43.87;101832.28;5035471;28;20075;-71
2023/08/17 10:53:12;;;;;;;123.82;118.13;;;;;;;25.88;43.39;101821.41;5045657;28;19956;-71